createdAt,value
2022-12-31T00:02:01.500Z,97710.16
2022-12-31T00:04:34.674Z,97702.44
2022-12-31T00:07:07.754Z,97708.00
2022-12-31T00:09:42.385Z,97718.69
2022-12-31T00:12:15.456Z,97707.53
2022-12-31T00:14:48.521Z,97711.66
2022-12-31T00:17:21.634Z,97718.53
2022-12-31T00:19:54.751Z,97710.88
2022-12-31T00:22:27.858Z,97725.53
2022-12-31T00:25:02.330Z,97722.47
2022-12-31T00:27:35.432Z,97719.97
2022-12-31T00:30:10.686Z,97722.88
2022-12-31T00:32:44.442Z,97720.63
2022-12-31T00:35:17.663Z,97725.72
2022-12-31T00:37:53.264Z,97735.75
2022-12-31T00:40:29.716Z,97726.50
2022-12-31T00:43:02.776Z,97721.25
2022-12-31T00:45:35.829Z,97726.31
2022-12-31T00:48:08.871Z,97728.22
2022-12-31T00:50:41.934Z,97728.22
2022-12-31T00:53:15.200Z,97744.03
2022-12-31T00:55:49.715Z,97742.69
2022-12-31T00:58:22.771Z,97748.63
2022-12-31T01:00:55.939Z,97746.00
2022-12-31T01:03:29.058Z,97752.16
2022-12-31T01:06:02.245Z,97761.59
2022-12-31T01:08:36.018Z,97756.31
2022-12-31T01:11:23.026Z,97758.28
2022-12-31T01:13:59.365Z,97752.69
2022-12-31T01:16:34.490Z,97764.03
2022-12-31T01:19:10.598Z,97760.47
2022-12-31T01:21:45.368Z,97765.91
2022-12-31T01:24:19.242Z,97765.34
2022-12-31T01:26:57.660Z,97764.50
2022-12-31T01:29:30.970Z,97773.91
2022-12-31T01:32:04.145Z,97789.22
2022-12-31T01:34:37.229Z,97798.38
2022-12-31T01:37:10.251Z,97787.84
2022-12-31T01:39:43.330Z,97806.06
2022-12-31T01:42:17.735Z,97820.19
2022-12-31T01:44:54.967Z,97806.28
2022-12-31T01:47:38.817Z,97818.66
2022-12-31T01:50:17.723Z,97807.94
2022-12-31T01:52:55.923Z,97819.56
2022-12-31T01:55:34.971Z,97815.41
2022-12-31T01:58:13.783Z,97819.31
2022-12-31T02:00:48.022Z,97817.63
2022-12-31T02:03:22.515Z,97826.28
2022-12-31T02:06:02.489Z,97819.72
2022-12-31T02:08:41.973Z,97825.72
2022-12-31T02:11:28.531Z,97826.00
2022-12-31T02:14:08.695Z,97833.38
2022-12-31T02:16:52.746Z,97832.16
2022-12-31T02:20:16.572Z,97828.72
2022-12-31T02:23:19.601Z,97828.69
2022-12-31T02:26:20.195Z,97828.91
2022-12-31T02:29:32.575Z,97841.13
2022-12-31T02:32:12.719Z,97839.81
2022-12-31T02:34:52.776Z,97834.81
2022-12-31T02:37:28.603Z,97835.69
2022-12-31T02:40:02.278Z,97839.22
2022-12-31T02:42:35.358Z,97833.28
2022-12-31T02:45:11.445Z,97837.78
2022-12-31T02:48:02.336Z,97824.88
2022-12-31T02:50:55.552Z,97821.94
2022-12-31T02:54:00.982Z,97829.59
2022-12-31T02:56:40.592Z,97821.22
2022-12-31T02:59:41.077Z,97836.59
2022-12-31T03:02:19.636Z,97830.53
2022-12-31T03:04:57.324Z,97822.22
2022-12-31T03:07:32.062Z,97804.16
2022-12-31T03:10:05.949Z,97811.59
2022-12-31T03:12:46.822Z,97814.28
2022-12-31T03:15:23.662Z,97817.63
2022-12-31T03:18:00.819Z,97816.84
2022-12-31T03:20:55.813Z,97817.03
2022-12-31T03:23:31.983Z,97814.72
2022-12-31T03:26:09.746Z,97818.44
2022-12-31T03:28:47.893Z,97818.22
2022-12-31T03:31:21.169Z,97829.41
2022-12-31T03:33:54.229Z,97815.00
2022-12-31T03:36:28.637Z,97819.94
2022-12-31T03:39:01.668Z,97809.72
2022-12-31T03:41:34.714Z,97807.97
2022-12-31T03:44:07.776Z,97817.50
2022-12-31T03:46:40.842Z,97815.09
2022-12-31T03:49:13.855Z,97830.13
2022-12-31T03:51:48.220Z,97830.22
2022-12-31T03:54:21.578Z,97831.00
2022-12-31T03:56:59.932Z,97833.91
2022-12-31T03:59:33.405Z,97836.47
2022-12-31T04:02:07.184Z,97830.75
2022-12-31T04:04:40.277Z,97826.41
2022-12-31T04:07:14.708Z,97826.81
2022-12-31T04:09:47.770Z,97844.56
2022-12-31T04:12:20.815Z,97831.97
2022-12-31T04:14:53.926Z,97831.91
2022-12-31T04:17:27.455Z,97833.63
2022-12-31T04:20:00.559Z,97844.28
2022-12-31T04:22:34.948Z,97841.13
2022-12-31T04:25:11.339Z,97844.91
2022-12-31T04:27:44.668Z,97840.63
2022-12-31T04:30:17.939Z,97851.59
2022-12-31T04:32:50.966Z,97854.09
2022-12-31T04:35:23.992Z,97850.31
2022-12-31T04:37:58.331Z,97858.44
2022-12-31T04:40:31.416Z,97861.94
2022-12-31T04:43:04.489Z,97858.56
2022-12-31T04:45:37.545Z,97866.91
2022-12-31T04:48:10.643Z,97869.53
2022-12-31T04:50:43.694Z,97861.06
2022-12-31T04:53:18.285Z,97865.44
2022-12-31T04:55:51.352Z,97858.75
2022-12-31T04:58:24.804Z,97868.41
2022-12-31T05:00:58.050Z,97870.72
2022-12-31T05:03:31.395Z,97873.91
2022-12-31T05:06:07.305Z,97876.59
2022-12-31T05:08:41.957Z,97881.50
2022-12-31T05:11:15.583Z,97880.84
2022-12-31T05:13:48.643Z,97887.72
2022-12-31T05:16:21.718Z,97883.78
2022-12-31T05:18:54.839Z,97883.19
2022-12-31T05:21:27.955Z,97881.31
2022-12-31T05:24:02.325Z,97885.63
2022-12-31T05:26:35.628Z,97884.97
2022-12-31T05:29:08.657Z,97890.22
2022-12-31T05:31:41.689Z,97893.81
2022-12-31T05:34:14.683Z,97910.19
2022-12-31T05:36:47.688Z,97906.03
2022-12-31T05:39:22.029Z,97886.31
2022-12-31T05:41:55.021Z,97898.28
2022-12-31T05:44:28.058Z,97885.44
2022-12-31T05:47:01.063Z,97899.78
2022-12-31T05:49:34.110Z,97910.13
2022-12-31T05:52:07.485Z,97911.16
2022-12-31T05:54:42.068Z,97911.06
2022-12-31T05:57:15.518Z,97910.84
2022-12-31T05:59:48.597Z,97916.28
2022-12-31T06:02:22.409Z,97908.94
2022-12-31T06:04:55.548Z,97917.22
2022-12-31T06:07:28.808Z,97914.59
2022-12-31T06:10:03.189Z,97917.97
2022-12-31T06:12:36.618Z,97920.75
2022-12-31T06:15:11.224Z,97921.31
2022-12-31T06:17:44.290Z,97921.84
2022-12-31T06:20:17.585Z,97932.16
2022-12-31T06:22:50.664Z,97939.63
2022-12-31T06:25:25.105Z,97937.41
2022-12-31T06:27:58.203Z,97951.31
2022-12-31T06:30:31.343Z,97958.03
2022-12-31T06:33:04.478Z,97969.22
2022-12-31T06:35:37.543Z,97957.69
2022-12-31T06:38:10.670Z,97959.22
2022-12-31T06:40:45.076Z,97966.06
2022-12-31T06:43:18.260Z,97976.31
2022-12-31T06:45:51.354Z,97977.34
2022-12-31T06:48:24.392Z,97978.63
2022-12-31T06:50:57.523Z,97976.38
2022-12-31T06:53:30.569Z,97976.91
2022-12-31T06:56:09.153Z,97970.88
2022-12-31T06:58:43.270Z,97986.75
2022-12-31T07:01:49.241Z,97989.44
2022-12-31T07:04:53.000Z,97988.19
2022-12-31T07:07:32.693Z,97985.50
2022-12-31T07:10:27.329Z,97979.31
2022-12-31T07:13:23.829Z,97979.13
2022-12-31T07:16:26.751Z,97983.00
2022-12-31T07:19:14.571Z,97966.34
2022-12-31T07:21:49.759Z,97975.56
2022-12-31T07:24:23.850Z,97978.53
2022-12-31T07:27:19.870Z,97985.97
2022-12-31T07:30:05.044Z,97986.72
2022-12-31T07:33:03.669Z,97986.72
2022-12-31T07:35:49.229Z,97983.06
2022-12-31T07:38:31.234Z,97990.97
2022-12-31T07:41:14.428Z,97991.50
2022-12-31T07:43:59.730Z,97985.44
2022-12-31T07:46:41.970Z,97992.25
2022-12-31T07:49:16.182Z,97993.00
2022-12-31T07:51:50.011Z,97991.22
2022-12-31T07:54:23.271Z,97998.81
2022-12-31T07:56:56.475Z,97999.44
2022-12-31T07:59:49.773Z,98003.69
2022-12-31T08:02:41.239Z,98007.97
2022-12-31T08:05:23.181Z,98014.13
2022-12-31T08:08:08.131Z,98029.47
2022-12-31T08:10:52.945Z,98019.25
2022-12-31T08:13:26.546Z,98023.72
2022-12-31T08:16:00.600Z,98031.44
2022-12-31T08:18:35.927Z,98032.25
2022-12-31T08:21:26.122Z,98043.41
2022-12-31T08:24:11.996Z,98037.44
2022-12-31T08:26:57.454Z,98041.66
2022-12-31T08:29:39.168Z,98043.13
2022-12-31T08:32:20.103Z,98043.50
2022-12-31T08:35:04.020Z,98041.91
2022-12-31T08:37:43.117Z,98029.94
2022-12-31T08:40:25.516Z,98027.06
2022-12-31T08:43:19.842Z,98036.91
2022-12-31T08:45:54.596Z,98025.38
2022-12-31T08:48:34.320Z,98025.56
2022-12-31T08:51:18.475Z,98020.59
2022-12-31T08:53:53.389Z,98015.63
2022-12-31T08:56:33.115Z,98026.09
2022-12-31T08:59:22.472Z,98032.28
2022-12-31T09:02:24.928Z,98033.28
2022-12-31T09:05:15.432Z,98039.50
2022-12-31T09:08:03.959Z,98043.81
2022-12-31T09:10:45.723Z,98053.81
2022-12-31T09:13:26.934Z,98058.47
2022-12-31T09:16:10.663Z,98060.91
2022-12-31T09:18:44.775Z,98063.19
2022-12-31T09:21:18.491Z,98070.59
2022-12-31T09:23:53.791Z,98068.25
2022-12-31T09:26:49.724Z,98061.69
2022-12-31T09:29:42.021Z,98063.28
2022-12-31T09:32:27.035Z,98078.31
2022-12-31T09:35:11.290Z,98072.50
2022-12-31T09:37:48.840Z,98072.00
2022-12-31T09:40:49.351Z,98072.75
2022-12-31T09:44:06.329Z,98075.03
2022-12-31T09:47:31.713Z,98074.94
2022-12-31T09:50:27.579Z,98073.25
2022-12-31T09:53:26.256Z,98062.44
2022-12-31T09:56:10.112Z,98075.72
2022-12-31T09:58:53.143Z,98070.84
2022-12-31T10:01:45.978Z,98078.75
2022-12-31T10:04:53.579Z,98077.25
2022-12-31T10:07:43.134Z,98071.00
2022-12-31T10:10:24.529Z,98069.75
2022-12-31T10:13:23.608Z,98077.28
2022-12-31T10:16:39.432Z,98082.03
2022-12-31T10:19:56.571Z,98072.91
2022-12-31T10:23:17.953Z,98071.72
2022-12-31T10:26:16.677Z,98070.06
2022-12-31T10:28:56.917Z,98066.00
2022-12-31T10:31:41.061Z,98073.09
2022-12-31T10:34:17.526Z,98080.25
2022-12-31T10:36:56.756Z,98069.03
2022-12-31T10:39:46.343Z,98080.47
2022-12-31T10:42:49.871Z,98078.59
2022-12-31T10:46:23.290Z,98074.66
2022-12-31T10:50:05.752Z,98073.13
2022-12-31T10:53:33.463Z,98073.81
2022-12-31T10:57:06.948Z,98079.00
2022-12-31T11:00:12.307Z,98071.59
2022-12-31T11:03:42.483Z,98062.63
2022-12-31T11:06:59.072Z,98061.47
2022-12-31T11:10:02.588Z,98057.28
2022-12-31T11:13:12.838Z,98045.78
2022-12-31T11:16:08.471Z,98058.88
2022-12-31T11:18:52.877Z,98052.91
2022-12-31T11:21:46.007Z,98052.75
2022-12-31T11:24:38.017Z,98040.53
2022-12-31T11:27:24.416Z,98040.97
2022-12-31T11:30:11.125Z,98042.38
2022-12-31T11:33:02.315Z,98032.19
2022-12-31T11:35:56.606Z,98033.13
2022-12-31T11:38:31.910Z,98038.38
2022-12-31T11:41:09.267Z,98024.50
2022-12-31T11:43:53.677Z,98031.03
2022-12-31T11:46:55.895Z,98026.22
2022-12-31T11:49:50.345Z,98027.81
2022-12-31T11:52:51.774Z,98032.09
2022-12-31T11:55:36.365Z,98027.81
2022-12-31T11:58:15.844Z,98021.91
2022-12-31T12:00:57.127Z,98020.78
2022-12-31T12:03:31.070Z,98028.66
2022-12-31T12:06:04.333Z,98019.88
2022-12-31T12:08:39.904Z,98021.75
2022-12-31T12:11:20.513Z,98012.69
2022-12-31T12:13:53.754Z,98018.06
2022-12-31T12:16:28.171Z,98019.88
2022-12-31T12:19:07.128Z,98015.97
2022-12-31T12:21:47.591Z,98009.34
2022-12-31T12:24:25.987Z,98004.25
2022-12-31T12:26:59.262Z,97998.00
2022-12-31T12:29:35.572Z,97998.88
2022-12-31T12:32:17.669Z,97995.44
2022-12-31T12:34:50.795Z,97995.97
2022-12-31T12:37:32.312Z,97993.53
2022-12-31T12:40:20.131Z,97988.44
2022-12-31T12:42:54.631Z,97990.16
2022-12-31T12:45:31.047Z,97986.72
2022-12-31T12:48:14.530Z,97991.09
2022-12-31T12:50:50.323Z,97991.88
2022-12-31T12:53:38.177Z,97995.03
2022-12-31T12:56:27.601Z,97990.88
2022-12-31T12:59:34.885Z,97988.78
2022-12-31T13:02:46.380Z,97997.63
2022-12-31T13:05:30.671Z,97993.06
2022-12-31T13:08:21.799Z,97984.28
2022-12-31T13:11:17.918Z,97984.91
2022-12-31T13:13:59.557Z,97981.47
2022-12-31T13:16:38.767Z,97985.09
2022-12-31T13:19:19.005Z,97986.63
2022-12-31T13:21:57.201Z,97990.84
2022-12-31T13:24:53.213Z,97983.13
2022-12-31T13:27:33.333Z,97984.81
2022-12-31T13:30:17.048Z,97976.19
2022-12-31T13:32:58.567Z,97972.56
2022-12-31T13:35:38.063Z,97978.34
2022-12-31T13:38:18.454Z,97962.59
2022-12-31T13:40:59.562Z,97953.03
2022-12-31T13:43:45.773Z,97964.06
2022-12-31T13:46:34.376Z,97970.03
2022-12-31T13:49:17.064Z,97968.22
2022-12-31T13:51:52.739Z,97967.19
2022-12-31T13:54:37.885Z,97976.47
2022-12-31T13:57:21.645Z,97962.56
2022-12-31T14:00:01.720Z,97965.78
2022-12-31T14:02:43.144Z,97969.97
2022-12-31T14:05:25.774Z,97966.22
2022-12-31T14:08:01.724Z,97969.28
2022-12-31T14:10:49.199Z,97969.25
2022-12-31T14:13:47.268Z,97963.69
2022-12-31T14:16:36.465Z,97971.19
2022-12-31T14:19:19.945Z,97966.56
2022-12-31T14:21:59.236Z,97969.69
2022-12-31T14:24:44.957Z,97968.44
2022-12-31T14:27:23.531Z,97970.88
2022-12-31T14:30:00.958Z,97981.75
2022-12-31T14:33:13.301Z,97968.28
2022-12-31T14:36:03.948Z,97978.38
2022-12-31T14:38:56.222Z,97980.38
2022-12-31T14:41:59.247Z,97975.34
2022-12-31T14:44:50.489Z,97969.78
2022-12-31T14:47:38.071Z,97974.63
2022-12-31T14:50:15.539Z,97971.66
2022-12-31T14:52:52.622Z,97978.38
2022-12-31T14:55:29.698Z,97982.19
2022-12-31T15:01:00.023Z,97982.25
2022-12-31T15:03:45.508Z,97990.41
2022-12-31T15:06:58.434Z,97993.13
2022-12-31T15:10:04.786Z,97995.16
2022-12-31T15:13:04.288Z,97992.25
2022-12-31T15:16:01.802Z,97988.63
2022-12-31T15:19:10.415Z,97988.00
2022-12-31T15:21:59.681Z,97995.72
2022-12-31T15:24:32.925Z,98000.34
2022-12-31T15:27:07.994Z,97999.91
2022-12-31T15:29:45.588Z,98011.56
2022-12-31T15:32:23.991Z,98009.19
2022-12-31T15:35:03.166Z,98005.63
2022-12-31T15:37:38.036Z,98002.50
2022-12-31T15:40:21.307Z,98000.03
2022-12-31T15:42:58.875Z,98017.34
2022-12-31T15:45:37.656Z,98013.50
2022-12-31T15:48:19.253Z,98016.53
2022-12-31T15:50:55.783Z,98013.69
2022-12-31T15:53:34.843Z,98006.06
2022-12-31T15:56:15.295Z,98017.31
2022-12-31T15:58:51.094Z,98022.44
2022-12-31T16:01:29.365Z,98018.66
2022-12-31T16:04:06.358Z,98022.63
2022-12-31T16:06:40.046Z,98011.97
2022-12-31T16:09:23.937Z,98022.63
2022-12-31T16:11:58.947Z,98029.97
2022-12-31T16:14:37.737Z,98025.28
2022-12-31T16:17:27.950Z,98030.03
2022-12-31T16:20:03.061Z,98026.16
2022-12-31T16:22:39.734Z,98022.34
2022-12-31T16:25:31.158Z,98033.13
2022-12-31T16:28:05.428Z,98037.03
2022-12-31T16:30:38.499Z,98034.69
2022-12-31T16:33:15.683Z,98037.88
2022-12-31T16:35:57.068Z,98037.56
2022-12-31T16:38:34.952Z,98039.03
2022-12-31T16:41:19.123Z,98039.94
2022-12-31T16:43:52.361Z,98044.00
2022-12-31T16:46:30.484Z,98038.00
2022-12-31T16:49:14.996Z,98041.63
2022-12-31T16:51:49.626Z,98031.22
2022-12-31T16:54:29.946Z,98049.78
2022-12-31T16:57:06.592Z,98045.94
2022-12-31T16:59:44.605Z,98043.00
2022-12-31T17:02:22.398Z,98044.31
2022-12-31T17:04:56.909Z,98045.84
2022-12-31T17:07:41.538Z,98045.84
2022-12-31T17:10:22.275Z,98039.69
2022-12-31T17:13:28.592Z,98050.22
2022-12-31T17:15:54.104Z,98057.59
2022-12-31T17:18:31.815Z,98056.63
2022-12-31T17:21:10.256Z,98058.94
2022-12-31T17:23:45.312Z,98050.78
2022-12-31T17:26:25.779Z,98059.78
2022-12-31T17:29:01.990Z,98056.59
2022-12-31T17:31:38.354Z,98056.06
2022-12-31T17:34:34.752Z,98056.59
2022-12-31T17:37:19.595Z,98057.47
2022-12-31T17:39:54.815Z,98056.69
2022-12-31T17:42:32.603Z,98058.91
2022-12-31T17:45:17.193Z,98061.47
2022-12-31T17:47:53.847Z,98058.56
2022-12-31T17:50:28.761Z,98063.50
2022-12-31T17:53:11.058Z,98061.66
2022-12-31T17:55:46.819Z,98061.38
2022-12-31T17:58:30.110Z,98061.84
2022-12-31T18:01:08.445Z,98072.53
2022-12-31T18:03:41.607Z,98069.91
2022-12-31T18:06:17.050Z,98079.06
2022-12-31T18:08:50.617Z,98090.16
2022-12-31T18:11:25.287Z,98090.00
2022-12-31T18:13:58.564Z,98092.72
2022-12-31T18:16:33.018Z,98091.66
2022-12-31T18:19:37.911Z,98094.75
2022-12-31T18:22:07.425Z,98097.31
2022-12-31T18:24:40.572Z,98105.50
2022-12-31T18:27:17.706Z,98103.66
2022-12-31T18:29:50.879Z,98103.97
2022-12-31T18:32:28.490Z,98097.00
2022-12-31T18:35:02.040Z,98102.47
2022-12-31T18:37:36.653Z,98097.34
2022-12-31T18:40:11.753Z,98101.41
2022-12-31T18:42:45.051Z,98101.66
2022-12-31T18:45:21.543Z,98099.88
2022-12-31T18:47:56.028Z,98093.09
2022-12-31T18:50:29.536Z,98099.97
2022-12-31T18:53:02.688Z,98098.50
2022-12-31T18:55:41.453Z,98089.47
2022-12-31T18:58:14.686Z,98111.09
2022-12-31T19:00:49.490Z,98110.25
2022-12-31T19:03:27.323Z,98112.63
2022-12-31T19:06:00.528Z,98109.69
2022-12-31T19:08:33.833Z,98110.78
2022-12-31T19:11:07.416Z,98105.44
2022-12-31T19:13:40.707Z,98108.53
2022-12-31T19:16:14.159Z,98111.94
2022-12-31T19:18:49.574Z,98114.94
2022-12-31T19:21:24.357Z,98113.94
2022-12-31T19:23:57.439Z,98113.75
2022-12-31T19:26:30.794Z,98116.38
2022-12-31T19:29:04.378Z,98108.16
2022-12-31T19:31:37.499Z,98110.91
2022-12-31T19:34:12.145Z,98115.53
2022-12-31T19:36:45.416Z,98124.19
2022-12-31T19:39:21.550Z,98114.72
2022-12-31T19:41:58.826Z,98120.25
2022-12-31T19:44:32.707Z,98122.81
2022-12-31T19:47:05.853Z,98124.47
2022-12-31T19:49:41.074Z,98128.78
2022-12-31T19:52:14.154Z,98130.16
2022-12-31T19:54:47.412Z,98131.25
2022-12-31T19:57:20.458Z,98138.81
2022-12-31T19:59:53.536Z,98136.94
2022-12-31T20:02:26.816Z,98130.00
2022-12-31T20:05:01.374Z,98132.31
2022-12-31T20:07:34.851Z,98138.50
2022-12-31T20:10:10.794Z,98139.38
2022-12-31T20:12:44.792Z,98138.09
2022-12-31T20:15:18.237Z,98142.63
2022-12-31T20:17:51.376Z,98132.97
2022-12-31T20:20:26.790Z,98134.19
2022-12-31T20:22:59.866Z,98133.00
2022-12-31T20:25:32.947Z,98130.84
2022-12-31T20:28:06.851Z,98122.91
2022-12-31T20:30:40.308Z,98131.34
2022-12-31T20:33:18.861Z,98130.69
2022-12-31T20:35:53.679Z,98126.16
2022-12-31T20:38:26.747Z,98129.50
2022-12-31T20:41:05.234Z,98133.41
2022-12-31T20:43:38.834Z,98134.59
2022-12-31T20:46:15.806Z,98131.34
2022-12-31T20:48:51.712Z,98134.97
2022-12-31T20:51:27.404Z,98139.31
2022-12-31T20:54:03.879Z,98132.72
2022-12-31T20:56:39.057Z,98131.91
2022-12-31T20:59:12.309Z,98132.81
2022-12-31T21:02:19.920Z,98136.34
2022-12-31T21:04:38.587Z,98132.59
2022-12-31T21:07:13.123Z,98124.88
2022-12-31T21:09:46.175Z,98130.84
2022-12-31T21:12:37.072Z,98131.84
2022-12-31T21:15:11.249Z,98130.16
2022-12-31T21:17:44.314Z,98132.81
2022-12-31T21:20:17.543Z,98132.03
2022-12-31T21:22:51.996Z,98145.69
2022-12-31T21:25:25.104Z,98143.31
2022-12-31T21:27:58.141Z,98145.59
2022-12-31T21:30:31.206Z,98145.91
2022-12-31T21:33:04.328Z,98140.59
2022-12-31T21:35:43.793Z,98140.47
2022-12-31T21:38:20.169Z,98148.63
2022-12-31T21:40:53.403Z,98149.13
2022-12-31T21:43:26.473Z,98162.56
2022-12-31T21:46:04.190Z,98157.16
2022-12-31T21:48:37.301Z,98158.94
2022-12-31T21:51:14.182Z,98170.28
2022-12-31T21:53:48.591Z,98161.97
2022-12-31T21:56:22.832Z,98171.88
2022-12-31T21:59:15.643Z,98171.66
2022-12-31T22:02:06.326Z,98166.63
2022-12-31T22:07:32.603Z,98182.59
2022-12-31T22:10:08.206Z,98184.47
2022-12-31T22:12:41.351Z,98185.06
2022-12-31T22:15:16.257Z,98181.44
2022-12-31T22:17:49.519Z,98187.78
2022-12-31T22:20:27.471Z,98192.69
2022-12-31T22:23:01.640Z,98198.16
2022-12-31T22:25:37.685Z,98198.03
2022-12-31T22:28:37.608Z,98198.72
2022-12-31T22:31:03.822Z,98192.94
2022-12-31T22:33:36.973Z,98195.66
2022-12-31T22:36:13.974Z,98202.41
2022-12-31T22:38:47.812Z,98203.88
2022-12-31T22:41:23.430Z,98206.78
2022-12-31T22:44:03.570Z,98209.47
2022-12-31T22:46:37.503Z,98207.91
2022-12-31T22:49:11.821Z,98212.22
2022-12-31T22:51:56.859Z,98221.09
2022-12-31T22:54:32.863Z,98219.31
2022-12-31T22:57:07.316Z,98220.50
2022-12-31T22:59:40.353Z,98225.50
2022-12-31T23:02:13.412Z,98220.09
2022-12-31T23:04:46.463Z,98218.31
2022-12-31T23:07:19.558Z,98226.97
2022-12-31T23:10:21.518Z,98235.34
2022-12-31T23:12:55.854Z,98232.28
2022-12-31T23:15:46.141Z,98241.34
2022-12-31T23:18:36.560Z,98253.47
2022-12-31T23:21:28.695Z,98242.59
2022-12-31T23:24:04.319Z,98236.28
2022-12-31T23:26:37.356Z,98235.53
2022-12-31T23:29:12.309Z,98234.31
2022-12-31T23:31:45.421Z,98218.69
2022-12-31T23:34:18.528Z,98226.88
2022-12-31T23:36:51.672Z,98233.06
2022-12-31T23:39:26.671Z,98235.75
2022-12-31T23:42:00.415Z,98235.34
2022-12-31T23:44:34.880Z,98237.09
2022-12-31T23:47:08.008Z,98235.47
2022-12-31T23:49:41.128Z,98243.31
2022-12-31T23:52:14.235Z,98237.34
2022-12-31T23:54:47.329Z,98239.34
2022-12-31T23:57:20.416Z,98239.06
2022-12-31T23:59:54.834Z,98233.28
